createdAt,value
2023-05-20T00:00:43.979Z,68.13
2023-05-20T00:01:43.975Z,68.34
2023-05-20T00:02:44.070Z,67.63
2023-05-20T00:03:44.019Z,67.73
2023-05-20T00:04:44.027Z,68.13
2023-05-20T00:05:44.091Z,67.73
2023-05-20T00:06:43.925Z,68.04
2023-05-20T00:07:43.915Z,68.34
2023-05-20T00:08:43.904Z,68.34
2023-05-20T00:09:43.873Z,68.68
2023-05-20T00:10:43.888Z,68.57
2023-05-20T00:11:43.838Z,68.37
2023-05-20T00:12:43.861Z,68.78
2023-05-20T00:13:43.872Z,68.68
2023-05-20T00:14:43.843Z,68.68
2023-05-20T00:15:43.821Z,68.78
2023-05-20T00:16:43.878Z,68.57
2023-05-20T00:17:43.823Z,68.48
2023-05-20T00:18:43.839Z,69.09
2023-05-20T00:19:43.759Z,69.09
2023-05-20T00:20:43.786Z,69.19
2023-05-20T00:21:43.759Z,69.09
2023-05-20T00:22:43.743Z,68.98
2023-05-20T00:23:43.747Z,69.29
2023-05-20T00:24:43.735Z,69.49
2023-05-20T00:25:43.719Z,69.59
2023-05-20T00:26:43.706Z,69.70
2023-05-20T00:27:43.676Z,69.49
2023-05-20T00:28:43.710Z,69.80
2023-05-20T00:29:43.660Z,69.80
2023-05-20T00:30:43.672Z,69.70
2023-05-20T00:31:43.658Z,69.70
2023-05-20T00:32:43.694Z,70.10
2023-05-20T00:33:43.664Z,69.90
2023-05-20T00:34:43.624Z,70.31
2023-05-20T00:35:43.588Z,70.21
2023-05-20T00:36:43.603Z,70.10
2023-05-20T00:37:43.567Z,70.21
2023-05-20T00:38:43.593Z,70.10
2023-05-20T00:39:43.577Z,70.00
2023-05-20T00:40:43.589Z,70.00
2023-05-20T00:41:43.551Z,70.24
2023-05-20T00:42:43.524Z,70.34
2023-05-20T00:43:43.574Z,70.54
2023-05-20T00:44:43.490Z,70.95
2023-05-20T00:45:43.518Z,71.15
2023-05-20T00:46:43.516Z,70.95
2023-05-20T00:47:43.533Z,70.85
2023-05-20T00:48:43.471Z,70.75
2023-05-20T00:49:43.487Z,70.54
2023-05-20T00:50:43.416Z,70.75
2023-05-20T00:51:43.434Z,70.78
2023-05-20T00:52:43.403Z,70.89
2023-05-20T00:53:43.486Z,71.29
2023-05-20T00:54:43.377Z,71.70
2023-05-20T00:55:43.392Z,72.21
2023-05-20T00:56:43.366Z,72.21
2023-05-20T00:57:43.403Z,72.31
2023-05-20T00:58:43.345Z,72.92
2023-05-20T00:59:44.855Z,73.03
2023-05-20T01:00:43.318Z,72.82
2023-05-20T01:01:43.440Z,72.92
2023-05-20T01:02:43.458Z,73.06
2023-05-20T01:03:43.384Z,73.47
2023-05-20T01:04:43.272Z,73.67
2023-05-20T01:05:43.289Z,73.88
2023-05-20T01:06:43.254Z,73.67
2023-05-20T01:07:43.259Z,73.77
2023-05-20T01:08:43.248Z,73.77
2023-05-20T01:09:43.246Z,73.88
2023-05-20T01:10:43.226Z,73.98
2023-05-20T01:11:43.226Z,74.18
2023-05-20T01:12:43.189Z,74.29
2023-05-20T01:13:43.213Z,74.18
2023-05-20T01:14:43.173Z,73.98
2023-05-20T01:15:43.198Z,74.08
2023-05-20T01:16:43.142Z,74.49
2023-05-20T01:17:43.202Z,74.38
2023-05-20T01:18:43.147Z,73.67
2023-05-20T01:19:43.135Z,73.88
2023-05-20T01:20:43.100Z,73.98
2023-05-20T01:21:43.107Z,73.88
2023-05-20T01:22:43.079Z,74.08
2023-05-20T01:23:43.121Z,74.42
2023-05-20T01:24:43.061Z,74.42
2023-05-20T01:25:43.065Z,74.08
2023-05-20T01:26:43.032Z,73.98
2023-05-20T01:27:43.046Z,73.98
2023-05-20T01:28:43.018Z,74.08
2023-05-20T01:29:43.032Z,73.77
2023-05-20T01:30:44.532Z,73.71
2023-05-20T01:31:43.018Z,74.11
2023-05-20T01:32:43.023Z,74.52
2023-05-20T01:33:42.995Z,74.42
2023-05-20T01:34:42.955Z,74.83
2023-05-20T01:35:42.969Z,74.73
2023-05-20T01:36:42.933Z,75.13
2023-05-20T01:37:42.933Z,75.54
2023-05-20T01:38:42.898Z,75.34
2023-05-20T01:39:42.931Z,75.24
2023-05-20T01:40:42.887Z,75.13
2023-05-20T01:41:42.899Z,75.24
2023-05-20T01:42:42.854Z,75.34
2023-05-20T01:43:42.872Z,75.27
2023-05-20T01:44:42.844Z,74.76
2023-05-20T01:45:42.848Z,75.48
2023-05-20T01:46:42.904Z,75.58
2023-05-20T01:47:42.836Z,75.48
2023-05-20T01:48:42.804Z,75.07
2023-05-20T01:49:42.817Z,74.66
2023-05-20T01:50:42.782Z,74.66
2023-05-20T01:51:42.787Z,74.87
2023-05-20T01:52:42.760Z,74.56
2023-05-20T01:53:42.766Z,74.46
2023-05-20T01:54:42.761Z,74.46
2023-05-20T01:55:42.750Z,74.52
2023-05-20T01:56:42.716Z,74.32
2023-05-20T01:57:42.717Z,75.04
2023-05-20T01:58:42.691Z,74.32
2023-05-20T01:59:42.725Z,74.66
2023-05-20T02:00:42.693Z,74.56
2023-05-20T02:01:42.706Z,74.25
2023-05-20T02:02:42.869Z,73.74
2023-05-20T02:03:42.665Z,73.84
2023-05-20T02:04:42.640Z,73.54
2023-05-20T02:05:42.676Z,73.44
2023-05-20T02:06:42.598Z,73.71
2023-05-20T02:07:42.617Z,75.13
2023-05-20T02:08:42.587Z,75.13
2023-05-20T02:09:42.605Z,75.13
2023-05-20T02:10:42.571Z,75.04
2023-05-20T02:11:42.569Z,75.04
2023-05-20T02:12:42.531Z,74.93
2023-05-20T02:13:42.548Z,75.24
2023-05-20T02:14:42.529Z,75.44
2023-05-20T02:15:42.527Z,75.34
2023-05-20T02:16:42.574Z,74.52
2023-05-20T02:17:42.571Z,74.52
2023-05-20T02:18:42.498Z,74.63
2023-05-20T02:19:42.505Z,74.56
2023-05-20T02:20:42.460Z,74.87
2023-05-20T02:21:42.465Z,74.97
2023-05-20T02:22:42.455Z,74.66
2023-05-20T02:23:42.438Z,75.17
2023-05-20T02:24:42.428Z,75.48
2023-05-20T02:25:42.427Z,75.37
2023-05-20T02:26:42.388Z,75.07
2023-05-20T02:27:42.400Z,75.17
2023-05-20T02:28:42.363Z,75.13
2023-05-20T02:29:42.394Z,75.65
2023-05-20T02:30:42.362Z,75.95
2023-05-20T02:31:42.364Z,75.65
2023-05-20T02:32:42.365Z,75.65
2023-05-20T02:33:42.372Z,75.44
2023-05-20T02:34:42.321Z,75.54
2023-05-20T02:35:42.314Z,75.68
2023-05-20T02:36:42.306Z,76.40
2023-05-20T02:37:42.296Z,76.40
2023-05-20T02:38:42.262Z,76.40
2023-05-20T02:39:42.286Z,76.09
2023-05-20T02:40:42.245Z,76.19
2023-05-20T02:41:42.259Z,76.09
2023-05-20T02:42:42.219Z,75.95
2023-05-20T02:43:42.225Z,76.06
2023-05-20T02:44:42.221Z,76.06
2023-05-20T02:45:42.646Z,76.16
2023-05-20T02:46:42.184Z,76.19
2023-05-20T02:47:42.255Z,76.09
2023-05-20T02:48:42.149Z,76.09
2023-05-20T02:49:42.183Z,77.01
2023-05-20T02:50:42.162Z,77.22
2023-05-20T02:51:42.189Z,76.60
2023-05-20T02:52:42.109Z,75.78
2023-05-20T02:53:42.130Z,75.17
2023-05-20T02:54:42.122Z,75.07
2023-05-20T02:55:42.101Z,74.35
2023-05-20T02:56:42.064Z,74.05
2023-05-20T02:57:42.098Z,74.25
2023-05-20T02:58:42.046Z,74.56
2023-05-20T02:59:42.077Z,74.56
2023-05-20T03:00:42.031Z,74.87
2023-05-20T03:01:42.142Z,75.37
2023-05-20T03:02:42.032Z,75.78
2023-05-20T03:03:42.028Z,76.29
2023-05-20T03:04:42.028Z,76.29
2023-05-20T03:05:42.000Z,75.48
2023-05-20T03:06:41.969Z,75.37
2023-05-20T03:07:41.969Z,75.17
2023-05-20T03:08:41.941Z,75.58
2023-05-20T03:09:41.980Z,75.68
2023-05-20T03:10:41.914Z,75.58
2023-05-20T03:11:41.926Z,75.58
2023-05-20T03:12:41.900Z,75.27
2023-05-20T03:13:41.921Z,75.17
2023-05-20T03:14:41.916Z,75.37
2023-05-20T03:15:41.884Z,75.17
2023-05-20T03:16:41.869Z,75.37
2023-05-20T03:17:41.937Z,75.89
2023-05-20T03:18:41.921Z,75.89
2023-05-20T03:19:41.869Z,75.89
2023-05-20T03:20:41.833Z,75.27
2023-05-20T03:21:41.810Z,75.68
2023-05-20T03:22:41.806Z,76.29
2023-05-20T03:23:41.793Z,75.99
2023-05-20T03:24:41.807Z,76.40
2023-05-20T03:25:41.747Z,76.29
2023-05-20T03:26:41.778Z,76.29
2023-05-20T03:27:41.728Z,75.99
2023-05-20T03:28:41.744Z,75.65
2023-05-20T03:29:41.720Z,75.54
2023-05-20T03:30:41.753Z,75.75
2023-05-20T03:31:41.753Z,75.65
2023-05-20T03:32:41.835Z,75.75
2023-05-20T03:33:41.673Z,75.65
2023-05-20T03:34:41.686Z,75.75
2023-05-20T03:35:41.659Z,75.44
2023-05-20T03:36:41.668Z,75.44
2023-05-20T03:37:41.622Z,75.34
2023-05-20T03:38:41.627Z,75.13
2023-05-20T03:39:41.612Z,75.24
2023-05-20T03:40:41.631Z,75.24
2023-05-20T03:41:41.589Z,75.65
2023-05-20T03:42:41.606Z,75.34
2023-05-20T03:43:41.569Z,75.44
2023-05-20T03:44:41.568Z,75.24
2023-05-20T03:45:41.563Z,74.93
2023-05-20T03:46:41.596Z,75.04
2023-05-20T03:47:41.559Z,74.93
2023-05-20T03:48:41.522Z,75.44
2023-05-20T03:49:41.502Z,75.85
2023-05-20T03:50:41.526Z,76.16
2023-05-20T03:51:41.465Z,76.16
2023-05-20T03:52:41.486Z,76.29
2023-05-20T03:53:41.456Z,76.19
2023-05-20T03:54:41.469Z,76.46
2023-05-20T03:55:41.464Z,76.16
2023-05-20T03:56:41.436Z,76.06
2023-05-20T03:57:41.438Z,76.56
2023-05-20T03:58:41.420Z,76.16
2023-05-20T03:59:41.406Z,76.06
2023-05-20T04:00:41.470Z,76.06
2023-05-20T04:01:41.398Z,76.16
2023-05-20T04:02:41.512Z,76.26
2023-05-20T04:03:41.411Z,76.46
2023-05-20T04:04:41.354Z,76.87
2023-05-20T04:05:41.359Z,76.77
2023-05-20T04:06:41.333Z,76.06
2023-05-20T04:07:41.305Z,75.75
2023-05-20T04:08:41.319Z,75.95
2023-05-20T04:09:41.275Z,75.99
2023-05-20T04:10:41.315Z,76.16
2023-05-20T04:11:41.266Z,76.36
2023-05-20T04:12:41.281Z,76.46
2023-05-20T04:13:41.237Z,76.36
2023-05-20T04:14:41.243Z,76.56
2023-05-20T04:15:41.242Z,76.67
2023-05-20T04:16:41.264Z,76.46
2023-05-20T04:17:41.216Z,76.56
2023-05-20T04:18:41.229Z,76.46
2023-05-20T04:19:41.178Z,76.36
2023-05-20T04:20:41.204Z,76.46
2023-05-20T04:21:41.144Z,76.36
2023-05-20T04:22:41.170Z,76.56
2023-05-20T04:23:41.145Z,76.26
2023-05-20T04:24:41.145Z,76.26
2023-05-20T04:25:41.135Z,76.26
2023-05-20T04:26:41.147Z,76.16
2023-05-20T04:27:41.108Z,76.46
2023-05-20T04:28:41.102Z,76.16
2023-05-20T04:29:41.084Z,76.16
2023-05-20T04:30:41.099Z,76.02
2023-05-20T04:31:41.119Z,76.73
2023-05-20T04:32:41.127Z,76.63
2023-05-20T04:33:41.021Z,76.22
2023-05-20T04:34:41.047Z,75.82
2023-05-20T04:35:41.017Z,75.65
2023-05-20T04:36:41.018Z,75.65
2023-05-20T04:37:40.976Z,75.95
2023-05-20T04:38:40.988Z,75.75
2023-05-20T04:39:40.958Z,75.85
2023-05-20T04:40:40.992Z,75.71
2023-05-20T04:41:40.937Z,75.41
2023-05-20T04:42:40.951Z,75.41
2023-05-20T04:43:40.929Z,75.51
2023-05-20T04:44:42.441Z,75.41
2023-05-20T04:45:40.907Z,75.75
2023-05-20T04:46:40.902Z,75.95
2023-05-20T04:47:40.894Z,75.92
2023-05-20T04:48:40.889Z,76.12
2023-05-20T04:49:40.858Z,75.31
2023-05-20T04:50:40.880Z,75.20
2023-05-20T04:51:40.826Z,74.59
2023-05-20T04:52:40.852Z,74.45
2023-05-20T04:53:40.806Z,74.76
2023-05-20T04:54:40.814Z,74.66
2023-05-20T04:55:40.809Z,74.66
2023-05-20T04:56:40.777Z,74.45
2023-05-20T04:57:40.783Z,74.35
2023-05-20T04:58:40.763Z,74.55
2023-05-20T04:59:40.763Z,74.21
2023-05-20T05:00:40.759Z,74.21
2023-05-20T05:01:40.830Z,74.42
2023-05-20T05:02:40.853Z,74.42
2023-05-20T05:03:40.721Z,74.21
2023-05-20T05:04:40.786Z,74.21
2023-05-20T05:05:40.757Z,74.11
2023-05-20T05:06:40.663Z,74.21
2023-05-20T05:07:40.692Z,74.01
2023-05-20T05:08:40.652Z,73.71
2023-05-20T05:09:40.669Z,73.50
2023-05-20T05:10:40.642Z,73.50
2023-05-20T05:11:40.654Z,73.60
2023-05-20T05:12:40.623Z,73.60
2023-05-20T05:13:40.624Z,73.60
2023-05-20T05:14:40.574Z,73.71
2023-05-20T05:15:40.635Z,73.81
2023-05-20T05:16:40.582Z,72.99
2023-05-20T05:17:40.585Z,73.50
2023-05-20T05:18:40.593Z,73.50
2023-05-20T05:19:40.566Z,73.30
2023-05-20T05:20:40.545Z,74.32
2023-05-20T05:21:40.546Z,74.83
2023-05-20T05:22:40.509Z,75.23
2023-05-20T05:23:40.510Z,75.34
2023-05-20T05:24:40.486Z,75.44
2023-05-20T05:25:40.510Z,75.34
2023-05-20T05:26:40.474Z,75.85
2023-05-20T05:27:40.465Z,75.64
2023-05-20T05:28:40.433Z,75.30
2023-05-20T05:29:40.461Z,74.90
2023-05-20T05:30:40.440Z,74.58
2023-05-20T05:31:40.430Z,74.18
2023-05-20T05:32:40.469Z,74.18
2023-05-20T05:33:40.402Z,74.08
2023-05-20T05:34:40.379Z,73.43
2023-05-20T05:35:40.415Z,72.11
2023-05-20T05:36:40.380Z,70.68
2023-05-20T05:37:40.370Z,72.11
2023-05-20T05:38:40.319Z,72.62
2023-05-20T05:39:40.354Z,71.19
2023-05-20T05:40:40.324Z,70.17
2023-05-20T05:41:40.330Z,71.39
2023-05-20T05:42:40.281Z,70.58
2023-05-20T05:43:40.292Z,71.60
2023-05-20T05:44:40.267Z,68.65
2023-05-20T05:45:40.292Z,68.24
2023-05-20T05:46:40.255Z,68.85
2023-05-20T05:47:40.324Z,69.67
2023-05-20T05:48:40.228Z,68.44
2023-05-20T05:49:40.220Z,67.90
2023-05-20T05:50:40.250Z,67.08
2023-05-20T05:51:40.214Z,67.26
2023-05-20T05:52:40.198Z,67.26
2023-05-20T05:53:40.252Z,66.75
2023-05-20T05:54:40.144Z,66.44
2023-05-20T05:55:40.170Z,66.44
2023-05-20T05:56:40.130Z,66.00
2023-05-20T05:57:40.143Z,66.11
2023-05-20T05:58:40.116Z,65.80
2023-05-20T05:59:40.136Z,65.36
2023-05-20T06:00:40.141Z,64.83
2023-05-20T06:01:40.180Z,64.90
2023-05-20T06:02:40.270Z,63.24
2023-05-20T06:03:40.153Z,62.91
2023-05-20T06:04:40.050Z,62.17
2023-05-20T06:05:40.103Z,61.46
2023-05-20T06:06:40.027Z,61.02
2023-05-20T06:07:40.038Z,60.31
2023-05-20T06:08:40.024Z,59.68
2023-05-20T06:09:40.026Z,61.05
2023-05-20T06:10:40.000Z,61.39
2023-05-20T06:11:40.008Z,62.43
2023-05-20T06:12:39.955Z,63.34
2023-05-20T06:13:39.974Z,63.24
2023-05-20T06:14:39.964Z,63.14
2023-05-20T06:15:39.987Z,63.24
2023-05-20T06:16:39.966Z,63.37
2023-05-20T06:17:39.989Z,64.09
2023-05-20T06:18:39.942Z,63.58
2023-05-20T06:19:39.976Z,63.68
2023-05-20T06:20:39.886Z,63.34
2023-05-20T06:21:39.895Z,63.01
2023-05-20T06:22:39.850Z,62.17
2023-05-20T06:23:39.853Z,61.97
2023-05-20T06:24:39.840Z,61.90
2023-05-20T06:25:39.872Z,62.51
2023-05-20T06:26:39.828Z,63.24
2023-05-20T06:27:39.815Z,63.88
2023-05-20T06:28:39.795Z,64.09
2023-05-20T06:29:41.347Z,64.39
2023-05-20T06:30:39.873Z,64.90
2023-05-20T06:31:39.806Z,64.49
2023-05-20T06:32:39.801Z,64.49
2023-05-20T06:33:39.786Z,64.67
2023-05-20T06:34:39.722Z,64.15
2023-05-20T06:35:39.762Z,63.95
2023-05-20T06:36:39.704Z,64.46
2023-05-20T06:37:39.764Z,64.15
2023-05-20T06:38:39.683Z,63.95
2023-05-20T06:39:39.695Z,64.26
2023-05-20T06:40:39.677Z,63.95
2023-05-20T06:41:39.672Z,63.85
2023-05-20T06:42:39.649Z,63.85
2023-05-20T06:43:39.654Z,64.36
2023-05-20T06:44:39.646Z,64.26
2023-05-20T06:45:39.643Z,64.26
2023-05-20T06:46:39.626Z,64.15
2023-05-20T06:47:39.673Z,64.36
2023-05-20T06:48:39.577Z,64.53
2023-05-20T06:49:39.582Z,63.59
2023-05-20T06:50:39.577Z,62.54
2023-05-20T06:51:39.590Z,60.97
2023-05-20T06:52:39.578Z,60.46
2023-05-20T06:53:39.543Z,60.89
2023-05-20T06:54:39.526Z,61.27
2023-05-20T06:55:39.574Z,60.66
2023-05-20T06:56:39.488Z,59.63
2023-05-20T06:57:39.514Z,59.59
2023-05-20T06:58:39.472Z,58.78
2023-05-20T06:59:39.484Z,58.86
2023-05-20T07:00:39.468Z,58.53
2023-05-20T07:01:39.513Z,58.73
2023-05-20T07:02:39.483Z,58.40
2023-05-20T07:03:39.496Z,57.52
2023-05-20T07:04:39.424Z,58.93
2023-05-20T07:05:39.438Z,58.20
2023-05-20T07:06:39.429Z,57.76
2023-05-20T07:07:39.417Z,57.03
2023-05-20T07:08:39.383Z,56.50
2023-05-20T07:09:39.393Z,56.10
2023-05-20T07:10:39.354Z,55.49
2023-05-20T07:11:39.375Z,56.17
2023-05-20T07:12:39.335Z,55.57
2023-05-20T07:13:39.355Z,54.91
2023-05-20T07:14:39.309Z,54.61
2023-05-20T07:15:39.341Z,55.24
2023-05-20T07:16:39.407Z,55.69
2023-05-20T07:17:39.326Z,55.79
2023-05-20T07:18:39.391Z,55.59
2023-05-20T07:19:39.274Z,56.10
2023-05-20T07:20:39.256Z,56.63
2023-05-20T07:21:39.280Z,57.64
2023-05-20T07:22:39.213Z,57.58
2023-05-20T07:23:39.231Z,55.36
2023-05-20T07:24:39.194Z,56.24
2023-05-20T07:25:39.221Z,55.66
2023-05-20T07:26:39.205Z,56.24
2023-05-20T07:27:39.182Z,56.37
2023-05-20T07:28:39.157Z,56.04
2023-05-20T07:29:39.165Z,56.24
2023-05-20T07:30:39.143Z,55.71
2023-05-20T07:31:39.207Z,55.44
2023-05-20T07:32:39.177Z,55.34
2023-05-20T07:33:39.120Z,55.34
2023-05-20T07:34:39.097Z,56.24
2023-05-20T07:35:39.116Z,56.65
2023-05-20T07:36:39.115Z,56.24
2023-05-20T07:37:39.107Z,55.71
2023-05-20T07:38:40.933Z,55.44
2023-05-20T07:39:39.082Z,55.74
2023-05-20T07:40:39.046Z,56.24
2023-05-20T07:41:39.095Z,55.49
2023-05-20T07:42:39.022Z,54.28
2023-05-20T07:43:39.035Z,54.38
2023-05-20T07:44:39.021Z,55.11
2023-05-20T07:45:39.062Z,55.82
2023-05-20T07:46:39.043Z,55.19
2023-05-20T07:47:39.015Z,54.55
2023-05-20T07:48:38.951Z,54.23
2023-05-20T07:49:38.984Z,53.40
2023-05-20T07:50:38.935Z,52.97
2023-05-20T07:51:38.959Z,52.04
2023-05-20T07:52:51.911Z,52.80
2023-05-20T07:53:38.923Z,53.30
2023-05-20T07:54:38.905Z,52.92
2023-05-20T07:55:38.899Z,55.08
2023-05-20T07:56:38.926Z,55.29
2023-05-20T07:57:38.893Z,55.19
2023-05-20T07:58:38.854Z,54.58
2023-05-20T07:59:38.876Z,54.88
2023-05-20T08:00:38.834Z,54.96
2023-05-20T08:01:38.852Z,54.55
2023-05-20T08:02:38.909Z,53.42
2023-05-20T08:03:38.891Z,53.25
2023-05-20T08:04:38.918Z,53.75
2023-05-20T08:05:38.797Z,53.92
2023-05-20T08:06:38.780Z,53.72
2023-05-20T08:07:38.791Z,54.30
2023-05-20T08:08:38.738Z,52.82
2023-05-20T08:09:38.751Z,53.83
2023-05-20T08:10:38.709Z,54.03
2023-05-20T08:11:38.753Z,53.09
2023-05-20T08:12:38.710Z,53.52
2023-05-20T08:13:38.708Z,54.35
2023-05-20T08:14:38.659Z,54.79
2023-05-20T08:15:38.684Z,55.31
2023-05-20T08:16:38.709Z,56.35
2023-05-20T08:17:38.778Z,55.74
2023-05-20T08:18:38.619Z,56.02
2023-05-20T08:19:38.629Z,55.21
2023-05-20T08:20:38.625Z,56.02
2023-05-20T08:21:38.612Z,56.42
2023-05-20T08:22:38.643Z,56.88
2023-05-20T08:23:40.592Z,57.68
2023-05-20T08:24:38.553Z,56.88
2023-05-20T08:25:38.562Z,56.95
2023-05-20T08:26:38.534Z,55.62
2023-05-20T08:27:38.547Z,55.82
2023-05-20T08:28:38.530Z,54.88
2023-05-20T08:29:38.515Z,55.19
2023-05-20T08:30:38.490Z,54.66
2023-05-20T08:31:38.651Z,54.88
2023-05-20T08:32:38.490Z,56.29
2023-05-20T08:33:38.476Z,56.02
2023-05-20T08:34:38.479Z,56.24
2023-05-20T08:35:38.453Z,57.25
2023-05-20T08:36:38.426Z,57.45
2023-05-20T08:37:38.435Z,56.72
2023-05-20T08:38:38.396Z,56.02
2023-05-20T08:39:38.412Z,55.59
2023-05-20T08:40:38.384Z,55.49
2023-05-20T08:41:38.377Z,56.24
2023-05-20T08:42:38.381Z,56.82
2023-05-20T08:43:38.382Z,56.32
2023-05-20T08:44:38.330Z,56.09
2023-05-20T08:45:38.325Z,55.36
2023-05-20T08:46:38.423Z,55.76
2023-05-20T08:47:38.337Z,56.20
2023-05-20T08:48:38.289Z,57.12
2023-05-20T08:49:38.295Z,56.92
2023-05-20T08:50:38.256Z,57.03
2023-05-20T08:51:38.304Z,56.29
2023-05-20T08:52:38.264Z,56.40
2023-05-20T08:53:38.287Z,56.80
2023-05-20T08:54:38.212Z,55.36
2023-05-20T08:55:38.217Z,55.54
2023-05-20T08:56:38.201Z,55.33
2023-05-20T08:57:38.218Z,55.36
2023-05-20T08:58:38.202Z,55.66
2023-05-20T08:59:38.175Z,54.93
2023-05-20T09:00:38.148Z,55.23
2023-05-20T09:01:38.201Z,55.06
2023-05-20T09:02:38.162Z,55.89
2023-05-20T09:03:38.138Z,55.46
2023-05-20T09:04:38.195Z,55.56
2023-05-20T09:05:38.152Z,56.27
2023-05-20T09:06:38.079Z,56.37
2023-05-20T09:07:38.104Z,56.80
2023-05-20T09:08:38.058Z,56.82
2023-05-20T09:09:38.085Z,57.03
2023-05-20T09:10:38.074Z,56.82
2023-05-20T09:11:38.067Z,56.72
2023-05-20T09:12:38.039Z,57.12
2023-05-20T09:13:38.014Z,57.73
2023-05-20T09:14:38.020Z,57.10
2023-05-20T09:15:37.982Z,56.40
2023-05-20T09:16:38.121Z,56.20
2023-05-20T09:17:37.994Z,56.49
2023-05-20T09:18:38.001Z,56.72
2023-05-20T09:19:38.026Z,55.96
2023-05-20T09:20:37.945Z,55.54
2023-05-20T09:21:37.925Z,55.31
2023-05-20T09:22:37.958Z,54.48
2023-05-20T09:23:37.906Z,53.97
2023-05-20T09:24:37.930Z,54.35
2023-05-20T09:25:37.884Z,54.58
2023-05-20T09:26:37.888Z,54.38
2023-05-20T09:27:37.847Z,54.00
2023-05-20T09:28:37.893Z,55.00
2023-05-20T09:29:37.833Z,54.80
2023-05-20T09:30:37.855Z,55.61
2023-05-20T09:31:37.894Z,54.80
2023-05-20T09:32:37.813Z,55.33
2023-05-20T09:33:37.777Z,55.13
2023-05-20T09:34:37.810Z,55.56
2023-05-20T09:35:37.817Z,56.27
2023-05-20T09:36:37.774Z,55.96
2023-05-20T09:37:37.746Z,55.23
2023-05-20T09:38:37.944Z,55.87
2023-05-20T09:39:37.713Z,56.37
2023-05-20T09:40:38.043Z,56.37
2023-05-20T09:41:37.694Z,56.37
2023-05-20T09:42:37.708Z,55.94
2023-05-20T09:43:37.673Z,55.33
2023-05-20T09:44:37.704Z,55.54
2023-05-20T09:45:37.911Z,55.74
2023-05-20T09:46:37.789Z,56.04
2023-05-20T09:47:37.634Z,55.13
2023-05-20T09:48:37.688Z,55.46
2023-05-20T09:49:37.668Z,55.94
2023-05-20T09:50:37.638Z,55.81
2023-05-20T09:51:37.592Z,54.71
2023-05-20T09:52:37.630Z,55.23
2023-05-20T09:53:37.558Z,55.63
2023-05-20T09:54:37.582Z,55.41
2023-05-20T09:55:37.778Z,54.48
2023-05-20T09:56:37.557Z,54.13
2023-05-20T09:57:37.553Z,53.02
2023-05-20T09:58:37.549Z,53.42
2023-05-20T09:59:37.518Z,53.82
2023-05-20T10:00:37.513Z,53.92
2023-05-20T10:01:37.543Z,53.09
2023-05-20T10:02:37.565Z,52.67
2023-05-20T10:03:37.662Z,53.20
2023-05-20T10:04:37.489Z,53.00
2023-05-20T10:05:37.441Z,53.80
2023-05-20T10:06:37.445Z,54.35
2023-05-20T10:07:42.198Z,55.58
2023-05-20T10:08:37.450Z,54.88
2023-05-20T10:09:37.397Z,55.61
2023-05-20T10:10:37.431Z,56.11
2023-05-20T10:11:37.376Z,55.08
2023-05-20T10:12:37.402Z,55.05
2023-05-20T10:13:37.358Z,54.45
2023-05-20T10:14:37.724Z,54.75
2023-05-20T10:15:37.509Z,53.70
2023-05-20T10:16:37.365Z,53.39
2023-05-20T10:17:37.328Z,53.52
2023-05-20T10:18:37.317Z,54.05
2023-05-20T10:19:37.288Z,54.55
2023-05-20T10:20:37.320Z,54.53
2023-05-20T10:21:37.285Z,53.37
2023-05-20T10:22:37.305Z,53.07
2023-05-20T10:23:37.243Z,52.57
2023-05-20T10:24:37.267Z,51.97
2023-05-20T10:25:37.470Z,52.80
2023-05-20T10:26:37.237Z,53.09
2023-05-20T10:27:37.194Z,53.52
2023-05-20T10:28:37.253Z,54.53
2023-05-20T10:29:37.183Z,54.40
2023-05-20T10:30:37.336Z,52.26
2023-05-20T10:31:37.181Z,52.80
2023-05-20T10:32:37.218Z,52.89
2023-05-20T10:33:37.209Z,52.04
2023-05-20T10:34:37.198Z,52.17
2023-05-20T10:35:37.131Z,52.94
2023-05-20T10:36:37.140Z,53.05
2023-05-20T10:37:37.092Z,53.80
2023-05-20T10:38:37.116Z,53.77
2023-05-20T10:39:37.086Z,52.44
2023-05-20T10:40:37.212Z,52.01
2023-05-20T10:41:37.060Z,52.26
2023-05-20T10:42:37.076Z,53.70
2023-05-20T10:43:37.073Z,53.92
2023-05-20T10:44:37.054Z,54.33
2023-05-20T10:45:37.002Z,53.62
2023-05-20T10:46:51.434Z,53.82
2023-05-20T10:47:37.287Z,53.59
2023-05-20T10:48:37.069Z,53.37
2023-05-20T10:49:36.986Z,52.57
2023-05-20T10:50:36.971Z,53.67
2023-05-20T10:51:36.949Z,52.47
2023-05-20T10:52:36.998Z,52.47
2023-05-20T10:53:36.930Z,53.70
2023-05-20T10:54:36.941Z,53.37
2023-05-20T10:55:36.907Z,52.04
2023-05-20T10:56:36.912Z,51.64
2023-05-20T10:57:36.880Z,52.26
2023-05-20T10:58:36.918Z,52.55
2023-05-20T10:59:36.861Z,51.97
2023-05-20T11:00:37.307Z,52.84
2023-05-20T11:01:36.875Z,51.89
2023-05-20T11:02:36.960Z,53.20
2023-05-20T11:03:36.885Z,53.80
2023-05-20T11:04:36.861Z,53.30
2023-05-20T11:05:36.856Z,53.09
2023-05-20T11:06:36.813Z,54.02
2023-05-20T11:07:36.829Z,53.70
2023-05-20T11:08:36.804Z,52.67
2023-05-20T11:09:36.753Z,51.97
2023-05-20T11:10:36.789Z,52.57
2023-05-20T11:11:36.734Z,53.37
2023-05-20T11:12:36.765Z,52.64
2023-05-20T11:13:36.732Z,52.17
2023-05-20T11:14:36.714Z,53.07
2023-05-20T11:15:36.698Z,52.72
2023-05-20T11:16:36.810Z,54.45
2023-05-20T11:17:36.691Z,54.35
2023-05-20T11:18:36.675Z,54.02
2023-05-20T11:19:36.664Z,52.49
2023-05-20T11:20:36.792Z,52.49
2023-05-20T11:21:36.618Z,52.89
2023-05-20T11:22:36.671Z,53.09
2023-05-20T11:23:37.565Z,54.00
2023-05-20T11:24:36.618Z,54.13
2023-05-20T11:25:36.576Z,53.52
2023-05-20T11:26:36.602Z,53.82
2023-05-20T11:27:36.560Z,54.02
2023-05-20T11:28:36.581Z,53.20
2023-05-20T11:29:36.539Z,53.30
2023-05-20T11:30:36.790Z,52.67
2023-05-20T11:31:36.523Z,52.57
2023-05-20T11:32:36.568Z,52.80
2023-05-20T11:33:36.504Z,53.59
2023-05-20T11:34:36.647Z,53.17
2023-05-20T11:35:36.468Z,53.05
2023-05-20T11:36:36.493Z,52.52
2023-05-20T11:37:36.462Z,51.62
2023-05-20T11:38:36.466Z,51.54
2023-05-20T11:39:36.459Z,53.47
2023-05-20T11:40:49.637Z,52.67
2023-05-20T11:41:36.406Z,52.77
2023-05-20T11:42:36.429Z,53.30
2023-05-20T11:43:36.381Z,53.42
2023-05-20T11:44:36.410Z,54.33
2023-05-20T11:45:36.362Z,55.05
2023-05-20T11:46:36.512Z,55.35
2023-05-20T11:47:36.367Z,55.16
2023-05-20T11:48:36.366Z,54.96
2023-05-20T11:49:36.321Z,54.65
2023-05-20T11:50:36.486Z,54.96
2023-05-20T11:51:36.302Z,54.65
2023-05-20T11:52:36.343Z,55.35
2023-05-20T11:53:36.281Z,55.35
2023-05-20T11:54:36.323Z,55.26
2023-05-20T11:55:36.263Z,55.66
2023-05-20T11:56:36.271Z,55.35
2023-05-20T11:57:36.239Z,56.16
2023-05-20T11:58:36.273Z,54.96
2023-05-20T11:59:36.216Z,55.26
2023-05-20T12:00:49.365Z,55.35
2023-05-20T12:01:36.224Z,55.55
2023-05-20T12:02:36.292Z,54.85
2023-05-20T12:03:36.303Z,55.55
2023-05-20T12:04:36.253Z,55.05
2023-05-20T12:05:36.154Z,54.55
2023-05-20T12:06:36.193Z,55.08
2023-05-20T12:07:36.128Z,55.68
2023-05-20T12:08:36.136Z,56.11
2023-05-20T12:09:36.122Z,55.99
2023-05-20T12:10:36.378Z,55.66
2023-05-20T12:11:36.089Z,55.46
2023-05-20T12:12:36.126Z,55.55
2023-05-20T12:13:36.058Z,55.66
2023-05-20T12:14:36.077Z,55.26
2023-05-20T12:15:36.057Z,55.55
2023-05-20T12:16:36.232Z,55.26
2023-05-20T12:17:36.122Z,55.58
2023-05-20T12:18:36.050Z,55.38
2023-05-20T12:19:36.999Z,55.46
2023-05-20T12:20:36.200Z,55.38
2023-05-20T12:21:35.981Z,55.46
2023-05-20T12:22:36.016Z,54.78
2023-05-20T12:23:35.968Z,55.48
2023-05-20T12:24:35.968Z,55.35
2023-05-20T12:25:35.950Z,54.93
2023-05-20T12:26:35.956Z,54.40
2023-05-20T12:27:35.916Z,53.77
2023-05-20T12:28:35.961Z,53.02
2023-05-20T12:29:35.903Z,51.29
2023-05-20T12:30:36.143Z,51.69
2023-05-20T12:31:35.978Z,51.99
2023-05-20T12:32:35.894Z,50.89
2023-05-20T12:33:35.842Z,50.59
2023-05-20T12:34:35.868Z,52.19
2023-05-20T12:35:35.835Z,51.72
2023-05-20T12:36:35.845Z,52.92
2023-05-20T12:37:36.722Z,52.42
2023-05-20T12:38:35.811Z,52.04
2023-05-20T12:39:35.796Z,52.47
2023-05-20T12:40:36.025Z,53.47
2023-05-20T12:41:35.754Z,53.37
2023-05-20T12:42:35.767Z,52.97
2023-05-20T12:43:36.803Z,53.27
2023-05-20T12:44:35.769Z,53.55
2023-05-20T12:45:35.728Z,52.64
2023-05-20T12:46:35.782Z,53.14
2023-05-20T12:47:35.743Z,52.37
2023-05-20T12:48:35.729Z,52.77
2023-05-20T12:49:35.688Z,52.17
2023-05-20T12:50:35.941Z,52.04
2023-05-20T12:51:35.678Z,52.14
2023-05-20T12:52:35.697Z,52.97